sensor_id;sensor_type;location;lat;lon;timestamp;temperature;humidity
19968;DHT22;10145;49.152;9.282;2024-03-02T00:02:06;4.00;99.90
19968;DHT22;10145;49.152;9.282;2024-03-02T00:04:32;4.00;99.90
19968;DHT22;10145;49.152;9.282;2024-03-02T00:06:58;4.00;99.90
19968;DHT22;10145;49.152;9.282;2024-03-02T00:09:23;4.00;99.90
19968;DHT22;10145;49.152;9.282;2024-03-02T00:11:49;4.00;99.90
19968;DHT22;10145;49.152;9.282;2024-03-02T00:14:16;4.00;99.90
19968;DHT22;10145;49.152;9.282;2024-03-02T00:16:42;4.00;99.90
19968;DHT22;10145;49.152;9.282;2024-03-02T00:19:09;3.90;99.90
19968;DHT22;10145;49.152;9.282;2024-03-02T00:21:34;3.90;99.90
19968;DHT22;10145;49.152;9.282;2024-03-02T00:24:01;3.90;99.90
19968;DHT22;10145;49.152;9.282;2024-03-02T00:26:32;3.90;99.90
19968;DHT22;10145;49.152;9.282;2024-03-02T00:28:59;3.90;99.90
19968;DHT22;10145;49.152;9.282;2024-03-02T00:31:25;3.90;99.90
19968;DHT22;10145;49.152;9.282;2024-03-02T00:33:51;3.90;99.90
19968;DHT22;10145;49.152;9.282;2024-03-02T00:36:24;3.80;99.90
19968;DHT22;10145;49.152;9.282;2024-03-02T00:38:51;3.90;99.90
19968;DHT22;10145;49.152;9.282;2024-03-02T00:41:34;3.90;99.90
19968;DHT22;10145;49.152;9.282;2024-03-02T00:44:05;3.90;99.90
19968;DHT22;10145;49.152;9.282;2024-03-02T00:46:39;4.00;99.90
19968;DHT22;10145;49.152;9.282;2024-03-02T00:49:18;4.00;99.90
19968;DHT22;10145;49.152;9.282;2024-03-02T00:51:48;4.00;99.90
19968;DHT22;10145;49.152;9.282;2024-03-02T00:54:22;3.90;99.90
19968;DHT22;10145;49.152;9.282;2024-03-02T00:56:50;3.90;99.90
19968;DHT22;10145;49.152;9.282;2024-03-02T00:59:15;3.80;99.90
19968;DHT22;10145;49.152;9.282;2024-03-02T01:01:41;3.90;99.90
19968;DHT22;10145;49.152;9.282;2024-03-02T01:04:08;3.90;99.90
19968;DHT22;10145;49.152;9.282;2024-03-02T01:06:37;3.80;99.90
19968;DHT22;10145;49.152;9.282;2024-03-02T01:09:03;3.80;99.90
19968;DHT22;10145;49.152;9.282;2024-03-02T01:11:29;3.80;99.90
19968;DHT22;10145;49.152;9.282;2024-03-02T01:13:55;3.80;99.90
19968;DHT22;10145;49.152;9.282;2024-03-02T01:16:21;3.90;99.90
19968;DHT22;10145;49.152;9.282;2024-03-02T01:18:46;3.80;99.90
19968;DHT22;10145;49.152;9.282;2024-03-02T01:21:12;3.80;99.90
19968;DHT22;10145;49.152;9.282;2024-03-02T01:23:38;3.90;99.90
19968;DHT22;10145;49.152;9.282;2024-03-02T01:26:04;3.90;99.90
19968;DHT22;10145;49.152;9.282;2024-03-02T01:28:29;4.00;99.90
19968;DHT22;10145;49.152;9.282;2024-03-02T01:30:55;4.10;99.90
19968;DHT22;10145;49.152;9.282;2024-03-02T01:33:20;4.10;99.90
19968;DHT22;10145;49.152;9.282;2024-03-02T01:35:46;4.00;99.90
19968;DHT22;10145;49.152;9.282;2024-03-02T01:38:12;3.90;99.90
19968;DHT22;10145;49.152;9.282;2024-03-02T01:40:38;3.90;99.90
19968;DHT22;10145;49.152;9.282;2024-03-02T01:43:05;3.80;99.90
19968;DHT22;10145;49.152;9.282;2024-03-02T01:45:31;3.80;99.90
19968;DHT22;10145;49.152;9.282;2024-03-02T01:47:57;3.80;99.90
19968;DHT22;10145;49.152;9.282;2024-03-02T01:50:31;3.70;99.90
19968;DHT22;10145;49.152;9.282;2024-03-02T01:52:57;3.70;99.90
19968;DHT22;10145;49.152;9.282;2024-03-02T01:55:23;3.60;99.90
19968;DHT22;10145;49.152;9.282;2024-03-02T01:57:49;3.60;99.90
19968;DHT22;10145;49.152;9.282;2024-03-02T02:00:19;3.60;99.90
19968;DHT22;10145;49.152;9.282;2024-03-02T02:02:46;3.70;99.90
19968;DHT22;10145;49.152;9.282;2024-03-02T02:05:11;3.70;99.90
19968;DHT22;10145;49.152;9.282;2024-03-02T02:07:37;3.70;99.90
19968;DHT22;10145;49.152;9.282;2024-03-02T02:10:03;3.70;99.90
19968;DHT22;10145;49.152;9.282;2024-03-02T02:12:29;3.60;99.90
19968;DHT22;10145;49.152;9.282;2024-03-02T02:14:55;3.50;99.90
19968;DHT22;10145;49.152;9.282;2024-03-02T02:17:20;3.70;99.90
19968;DHT22;10145;49.152;9.282;2024-03-02T02:19:46;3.90;99.90
19968;DHT22;10145;49.152;9.282;2024-03-02T02:22:12;3.90;99.90
19968;DHT22;10145;49.152;9.282;2024-03-02T02:24:41;3.80;99.90
19968;DHT22;10145;49.152;9.282;2024-03-02T02:27:07;3.60;99.90
19968;DHT22;10145;49.152;9.282;2024-03-02T02:29:33;3.50;99.90
19968;DHT22;10145;49.152;9.282;2024-03-02T02:31:59;3.40;99.90
19968;DHT22;10145;49.152;9.282;2024-03-02T02:34:24;3.30;99.90
19968;DHT22;10145;49.152;9.282;2024-03-02T02:36:50;3.20;99.90
19968;DHT22;10145;49.152;9.282;2024-03-02T02:39:18;3.20;99.90
19968;DHT22;10145;49.152;9.282;2024-03-02T02:41:45;3.10;99.90
19968;DHT22;10145;49.152;9.282;2024-03-02T02:44:11;3.10;99.90
19968;DHT22;10145;49.152;9.282;2024-03-02T02:46:38;3.00;99.90
19968;DHT22;10145;49.152;9.282;2024-03-02T02:49:04;3.00;99.90
19968;DHT22;10145;49.152;9.282;2024-03-02T02:51:29;2.90;99.90
19968;DHT22;10145;49.152;9.282;2024-03-02T02:53:55;2.80;99.90
19968;DHT22;10145;49.152;9.282;2024-03-02T02:56:21;2.80;99.90
19968;DHT22;10145;49.152;9.282;2024-03-02T02:58:46;2.90;99.90
19968;DHT22;10145;49.152;9.282;2024-03-02T03:01:12;2.90;99.90
19968;DHT22;10145;49.152;9.282;2024-03-02T03:03:37;2.80;99.90
19968;DHT22;10145;49.152;9.282;2024-03-02T03:06:03;2.70;99.90
19968;DHT22;10145;49.152;9.282;2024-03-02T03:08:28;2.60;99.90
19968;DHT22;10145;49.152;9.282;2024-03-02T03:10:54;2.60;99.90
19968;DHT22;10145;49.152;9.282;2024-03-02T03:13:20;2.60;99.90
19968;DHT22;10145;49.152;9.282;2024-03-02T03:15:45;2.50;99.90
19968;DHT22;10145;49.152;9.282;2024-03-02T03:18:11;2.50;99.90
19968;DHT22;10145;49.152;9.282;2024-03-02T03:20:36;2.50;99.90
19968;DHT22;10145;49.152;9.282;2024-03-02T03:23:02;2.50;99.90
19968;DHT22;10145;49.152;9.282;2024-03-02T03:25:29;2.50;99.90
19968;DHT22;10145;49.152;9.282;2024-03-02T03:27:55;2.40;99.90
19968;DHT22;10145;49.152;9.282;2024-03-02T03:30:20;2.40;99.90
19968;DHT22;10145;49.152;9.282;2024-03-02T03:32:46;2.50;99.90
19968;DHT22;10145;49.152;9.282;2024-03-02T03:35:13;2.40;99.90
19968;DHT22;10145;49.152;9.282;2024-03-02T03:37:40;2.50;99.90
19968;DHT22;10145;49.152;9.282;2024-03-02T03:40:06;2.50;99.90
19968;DHT22;10145;49.152;9.282;2024-03-02T03:42:39;2.50;99.90
19968;DHT22;10145;49.152;9.282;2024-03-02T03:45:06;2.60;99.90
19968;DHT22;10145;49.152;9.282;2024-03-02T03:47:32;2.60;99.90
19968;DHT22;10145;49.152;9.282;2024-03-02T03:49:58;2.50;99.90
19968;DHT22;10145;49.152;9.282;2024-03-02T03:52:24;2.50;99.90
19968;DHT22;10145;49.152;9.282;2024-03-02T03:54:49;2.40;99.90
19968;DHT22;10145;49.152;9.282;2024-03-02T03:57:15;2.40;99.90
19968;DHT22;10145;49.152;9.282;2024-03-02T03:59:41;2.30;99.90
19968;DHT22;10145;49.152;9.282;2024-03-02T04:02:08;2.40;99.90
19968;DHT22;10145;49.152;9.282;2024-03-02T04:04:34;2.30;99.90
19968;DHT22;10145;49.152;9.282;2024-03-02T04:07:00;2.50;99.90
19968;DHT22;10145;49.152;9.282;2024-03-02T04:09:26;2.30;99.90
19968;DHT22;10145;49.152;9.282;2024-03-02T04:11:51;2.60;99.90
19968;DHT22;10145;49.152;9.282;2024-03-02T04:14:17;2.50;99.90
19968;DHT22;10145;49.152;9.282;2024-03-02T04:16:42;2.50;99.90
19968;DHT22;10145;49.152;9.282;2024-03-02T04:19:08;2.40;99.90
19968;DHT22;10145;49.152;9.282;2024-03-02T04:21:34;2.40;99.90
19968;DHT22;10145;49.152;9.282;2024-03-02T04:23:59;2.30;99.90
19968;DHT22;10145;49.152;9.282;2024-03-02T04:26:25;2.20;99.90
19968;DHT22;10145;49.152;9.282;2024-03-02T04:28:52;2.20;99.90
19968;DHT22;10145;49.152;9.282;2024-03-02T04:31:50;2.10;99.90
19968;DHT22;10145;49.152;9.282;2024-03-02T04:34:16;2.10;99.90
19968;DHT22;10145;49.152;9.282;2024-03-02T04:36:41;2.10;99.90
19968;DHT22;10145;49.152;9.282;2024-03-02T04:39:07;2.10;99.90
19968;DHT22;10145;49.152;9.282;2024-03-02T04:41:35;2.20;99.90
19968;DHT22;10145;49.152;9.282;2024-03-02T04:44:00;2.10;99.90
19968;DHT22;10145;49.152;9.282;2024-03-02T04:46:26;2.10;99.90
19968;DHT22;10145;49.152;9.282;2024-03-02T04:48:51;2.30;99.90
19968;DHT22;10145;49.152;9.282;2024-03-02T04:51:21;2.00;99.90
19968;DHT22;10145;49.152;9.282;2024-03-02T04:53:46;2.00;99.90
19968;DHT22;10145;49.152;9.282;2024-03-02T04:56:12;2.00;99.90
19968;DHT22;10145;49.152;9.282;2024-03-02T04:58:56;2.00;99.90
19968;DHT22;10145;49.152;9.282;2024-03-02T05:01:22;2.00;99.90
19968;DHT22;10145;49.152;9.282;2024-03-02T05:03:47;2.00;99.90
19968;DHT22;10145;49.152;9.282;2024-03-02T05:06:13;2.00;99.90
19968;DHT22;10145;49.152;9.282;2024-03-02T05:08:38;2.00;99.90
19968;DHT22;10145;49.152;9.282;2024-03-02T05:11:04;2.00;99.90
19968;DHT22;10145;49.152;9.282;2024-03-02T05:13:48;1.90;99.90
19968;DHT22;10145;49.152;9.282;2024-03-02T05:16:14;1.90;99.90
19968;DHT22;10145;49.152;9.282;2024-03-02T05:18:39;1.80;99.90
19968;DHT22;10145;49.152;9.282;2024-03-02T05:21:05;1.90;99.90
19968;DHT22;10145;49.152;9.282;2024-03-02T05:23:30;1.90;99.90
19968;DHT22;10145;49.152;9.282;2024-03-02T05:25:56;2.00;99.90
19968;DHT22;10145;49.152;9.282;2024-03-02T05:28:21;2.00;99.90
19968;DHT22;10145;49.152;9.282;2024-03-02T05:30:47;2.00;99.90
19968;DHT22;10145;49.152;9.282;2024-03-02T05:33:13;1.90;99.90
19968;DHT22;10145;49.152;9.282;2024-03-02T05:35:38;1.90;99.90
19968;DHT22;10145;49.152;9.282;2024-03-02T05:38:04;1.90;99.90
19968;DHT22;10145;49.152;9.282;2024-03-02T05:40:29;1.80;99.90
19968;DHT22;10145;49.152;9.282;2024-03-02T05:42:55;1.70;99.90
19968;DHT22;10145;49.152;9.282;2024-03-02T05:45:20;1.70;99.90
19968;DHT22;10145;49.152;9.282;2024-03-02T05:47:46;1.70;99.90
19968;DHT22;10145;49.152;9.282;2024-03-02T05:50:11;1.70;99.90
19968;DHT22;10145;49.152;9.282;2024-03-02T05:52:37;1.70;99.90
19968;DHT22;10145;49.152;9.282;2024-03-02T05:55:03;1.60;99.90
19968;DHT22;10145;49.152;9.282;2024-03-02T05:57:29;1.70;99.90
19968;DHT22;10145;49.152;9.282;2024-03-02T06:00:11;1.60;99.90
19968;DHT22;10145;49.152;9.282;2024-03-02T06:02:39;1.70;99.90
19968;DHT22;10145;49.152;9.282;2024-03-02T06:05:06;1.70;99.90
19968;DHT22;10145;49.152;9.282;2024-03-02T06:07:32;1.80;99.90
19968;DHT22;10145;49.152;9.282;2024-03-02T06:09:58;1.90;99.90
19968;DHT22;10145;49.152;9.282;2024-03-02T06:12:24;1.90;99.90
19968;DHT22;10145;49.152;9.282;2024-03-02T06:14:49;1.90;99.90
19968;DHT22;10145;49.152;9.282;2024-03-02T06:17:15;1.90;99.90
19968;DHT22;10145;49.152;9.282;2024-03-02T06:19:40;2.00;99.90
19968;DHT22;10145;49.152;9.282;2024-03-02T06:22:06;2.00;99.90
19968;DHT22;10145;49.152;9.282;2024-03-02T06:24:36;2.10;99.90
19968;DHT22;10145;49.152;9.282;2024-03-02T06:27:02;2.10;99.90
19968;DHT22;10145;49.152;9.282;2024-03-02T06:29:27;2.10;99.90
19968;DHT22;10145;49.152;9.282;2024-03-02T06:31:53;2.20;99.90
19968;DHT22;10145;49.152;9.282;2024-03-02T06:34:18;2.30;99.90
19968;DHT22;10145;49.152;9.282;2024-03-02T06:36:44;2.30;99.90
19968;DHT22;10145;49.152;9.282;2024-03-02T06:39:09;2.30;99.90
19968;DHT22;10145;49.152;9.282;2024-03-02T06:41:35;2.30;99.90
19968;DHT22;10145;49.152;9.282;2024-03-02T06:44:01;2.40;99.90
19968;DHT22;10145;49.152;9.282;2024-03-02T06:46:26;2.50;99.90
19968;DHT22;10145;49.152;9.282;2024-03-02T06:48:52;2.60;99.90
19968;DHT22;10145;49.152;9.282;2024-03-02T06:51:17;2.70;99.90
19968;DHT22;10145;49.152;9.282;2024-03-02T06:53:43;2.70;99.90
19968;DHT22;10145;49.152;9.282;2024-03-02T06:56:09;2.80;99.90
19968;DHT22;10145;49.152;9.282;2024-03-02T06:58:34;2.90;99.90
19968;DHT22;10145;49.152;9.282;2024-03-02T07:01:00;3.00;99.90
19968;DHT22;10145;49.152;9.282;2024-03-02T07:03:26;3.00;99.90
19968;DHT22;10145;49.152;9.282;2024-03-02T07:05:51;3.10;99.90
19968;DHT22;10145;49.152;9.282;2024-03-02T07:08:17;3.20;99.90
19968;DHT22;10145;49.152;9.282;2024-03-02T07:10:42;3.30;99.90
19968;DHT22;10145;49.152;9.282;2024-03-02T07:13:08;3.40;99.90
19968;DHT22;10145;49.152;9.282;2024-03-02T07:15:34;3.50;99.90
19968;DHT22;10145;49.152;9.282;2024-03-02T07:18:02;3.60;99.90
19968;DHT22;10145;49.152;9.282;2024-03-02T07:20:28;3.80;99.90
19968;DHT22;10145;49.152;9.282;2024-03-02T07:22:54;3.80;99.90
19968;DHT22;10145;49.152;9.282;2024-03-02T07:25:19;3.90;99.90
19968;DHT22;10145;49.152;9.282;2024-03-02T07:27:45;4.00;99.90
19968;DHT22;10145;49.152;9.282;2024-03-02T07:30:13;4.10;99.90
19968;DHT22;10145;49.152;9.282;2024-03-02T07:32:39;4.20;99.90
19968;DHT22;10145;49.152;9.282;2024-03-02T07:35:07;4.40;99.90
19968;DHT22;10145;49.152;9.282;2024-03-02T07:37:33;4.50;99.90
19968;DHT22;10145;49.152;9.282;2024-03-02T07:39:58;4.60;99.90
19968;DHT22;10145;49.152;9.282;2024-03-02T07:42:24;4.70;99.90
19968;DHT22;10145;49.152;9.282;2024-03-02T07:44:49;4.80;99.90
19968;DHT22;10145;49.152;9.282;2024-03-02T07:47:15;5.00;99.90
19968;DHT22;10145;49.152;9.282;2024-03-02T07:49:40;5.20;99.90
19968;DHT22;10145;49.152;9.282;2024-03-02T07:52:06;5.10;99.90
19968;DHT22;10145;49.152;9.282;2024-03-02T07:54:38;5.20;99.90
19968;DHT22;10145;49.152;9.282;2024-03-02T07:57:07;5.30;99.90
19968;DHT22;10145;49.152;9.282;2024-03-02T07:59:34;5.40;99.90
19968;DHT22;10145;49.152;9.282;2024-03-02T08:01:59;5.40;99.90
19968;DHT22;10145;49.152;9.282;2024-03-02T08:04:26;5.70;99.90
19968;DHT22;10145;49.152;9.282;2024-03-02T08:06:51;5.50;99.90
19968;DHT22;10145;49.152;9.282;2024-03-02T08:09:17;5.60;99.90
19968;DHT22;10145;49.152;9.282;2024-03-02T08:11:42;5.70;99.90
19968;DHT22;10145;49.152;9.282;2024-03-02T08:14:08;5.70;99.90
19968;DHT22;10145;49.152;9.282;2024-03-02T08:16:34;5.70;99.90
19968;DHT22;10145;49.152;9.282;2024-03-02T08:18:59;5.80;99.90
19968;DHT22;10145;49.152;9.282;2024-03-02T08:21:25;5.80;99.90
19968;DHT22;10145;49.152;9.282;2024-03-02T08:23:51;5.80;99.90
19968;DHT22;10145;49.152;9.282;2024-03-02T08:26:17;5.90;99.90
19968;DHT22;10145;49.152;9.282;2024-03-02T08:28:42;5.90;99.90
19968;DHT22;10145;49.152;9.282;2024-03-02T08:31:20;6.00;99.90
19968;DHT22;10145;49.152;9.282;2024-03-02T08:33:46;6.00;99.90
19968;DHT22;10145;49.152;9.282;2024-03-02T08:36:11;6.00;99.90
19968;DHT22;10145;49.152;9.282;2024-03-02T08:38:37;6.10;99.90
19968;DHT22;10145;49.152;9.282;2024-03-02T08:41:03;6.10;99.90
19968;DHT22;10145;49.152;9.282;2024-03-02T08:43:29;6.10;99.90
19968;DHT22;10145;49.152;9.282;2024-03-02T08:45:55;6.00;99.90
19968;DHT22;10145;49.152;9.282;2024-03-02T08:48:20;6.00;99.90
19968;DHT22;10145;49.152;9.282;2024-03-02T08:50:46;6.00;99.90
19968;DHT22;10145;49.152;9.282;2024-03-02T08:53:12;5.90;99.90
19968;DHT22;10145;49.152;9.282;2024-03-02T08:55:37;6.00;99.90
19968;DHT22;10145;49.152;9.282;2024-03-02T08:58:03;5.90;99.90
19968;DHT22;10145;49.152;9.282;2024-03-02T09:00:29;5.90;99.90
19968;DHT22;10145;49.152;9.282;2024-03-02T09:02:54;5.80;99.90
19968;DHT22;10145;49.152;9.282;2024-03-02T09:05:20;5.80;99.90
19968;DHT22;10145;49.152;9.282;2024-03-02T09:07:45;5.90;99.90
19968;DHT22;10145;49.152;9.282;2024-03-02T09:10:11;5.80;99.90
19968;DHT22;10145;49.152;9.282;2024-03-02T09:12:37;5.90;99.90
19968;DHT22;10145;49.152;9.282;2024-03-02T09:15:03;6.00;99.90
19968;DHT22;10145;49.152;9.282;2024-03-02T09:17:29;6.00;99.90
19968;DHT22;10145;49.152;9.282;2024-03-02T09:19:55;6.00;99.90
19968;DHT22;10145;49.152;9.282;2024-03-02T09:22:21;6.10;99.90
19968;DHT22;10145;49.152;9.282;2024-03-02T09:24:49;6.20;99.90
19968;DHT22;10145;49.152;9.282;2024-03-02T09:27:17;6.40;99.90
19968;DHT22;10145;49.152;9.282;2024-03-02T09:29:42;6.50;99.90
19968;DHT22;10145;49.152;9.282;2024-03-02T09:32:12;6.70;99.90
19968;DHT22;10145;49.152;9.282;2024-03-02T09:34:37;6.80;99.90
19968;DHT22;10145;49.152;9.282;2024-03-02T09:37:03;6.90;99.90
19968;DHT22;10145;49.152;9.282;2024-03-02T09:39:30;7.10;99.90
19968;DHT22;10145;49.152;9.282;2024-03-02T09:41:55;7.20;99.90
19968;DHT22;10145;49.152;9.282;2024-03-02T09:44:21;7.30;99.90
19968;DHT22;10145;49.152;9.282;2024-03-02T09:46:51;7.50;99.90
19968;DHT22;10145;49.152;9.282;2024-03-02T09:49:17;7.50;99.90
19968;DHT22;10145;49.152;9.282;2024-03-02T09:51:47;7.60;99.90
19968;DHT22;10145;49.152;9.282;2024-03-02T09:54:15;7.70;99.90
19968;DHT22;10145;49.152;9.282;2024-03-02T09:56:41;7.90;99.90
19968;DHT22;10145;49.152;9.282;2024-03-02T09:59:06;7.90;99.90
19968;DHT22;10145;49.152;9.282;2024-03-02T10:01:32;8.00;99.90
19968;DHT22;10145;49.152;9.282;2024-03-02T10:04:01;8.30;99.90
19968;DHT22;10145;49.152;9.282;2024-03-02T10:06:28;8.20;99.90
19968;DHT22;10145;49.152;9.282;2024-03-02T10:08:55;8.40;99.90
19968;DHT22;10145;49.152;9.282;2024-03-02T10:11:31;8.50;99.90
19968;DHT22;10145;49.152;9.282;2024-03-02T10:14:11;8.80;99.90
19968;DHT22;10145;49.152;9.282;2024-03-02T10:16:39;8.90;99.90
19968;DHT22;10145;49.152;9.282;2024-03-02T10:19:22;9.20;99.90
19968;DHT22;10145;49.152;9.282;2024-03-02T10:21:53;9.10;99.90
19968;DHT22;10145;49.152;9.282;2024-03-02T10:24:19;9.20;99.90
19968;DHT22;10145;49.152;9.282;2024-03-02T10:26:45;9.30;99.90
19968;DHT22;10145;49.152;9.282;2024-03-02T10:29:12;9.30;99.90
19968;DHT22;10145;49.152;9.282;2024-03-02T10:31:38;9.50;99.90
19968;DHT22;10145;49.152;9.282;2024-03-02T10:34:05;9.40;99.90
19968;DHT22;10145;49.152;9.282;2024-03-02T10:36:34;9.50;99.90
19968;DHT22;10145;49.152;9.282;2024-03-02T10:39:04;9.50;99.90
19968;DHT22;10145;49.152;9.282;2024-03-02T10:41:37;9.50;99.90
19968;DHT22;10145;49.152;9.282;2024-03-02T10:44:04;9.70;99.90
19968;DHT22;10145;49.152;9.282;2024-03-02T10:46:31;9.80;99.90
19968;DHT22;10145;49.152;9.282;2024-03-02T10:48:58;9.80;99.90
19968;DHT22;10145;49.152;9.282;2024-03-02T10:51:28;10.00;99.90
19968;DHT22;10145;49.152;9.282;2024-03-02T10:53:58;10.00;99.90
19968;DHT22;10145;49.152;9.282;2024-03-02T10:56:31;10.00;99.90
19968;DHT22;10145;49.152;9.282;2024-03-02T11:01:48;10.40;99.90
19968;DHT22;10145;49.152;9.282;2024-03-02T11:04:17;10.60;99.90
19968;DHT22;10145;49.152;9.282;2024-03-02T11:06:56;10.70;99.90
19968;DHT22;10145;49.152;9.282;2024-03-02T11:09:26;10.80;99.90
19968;DHT22;10145;49.152;9.282;2024-03-02T11:12:12;11.00;99.90
19968;DHT22;10145;49.152;9.282;2024-03-02T11:14:41;11.10;99.90
19968;DHT22;10145;49.152;9.282;2024-03-02T11:17:11;11.40;99.90
19968;DHT22;10145;49.152;9.282;2024-03-02T11:19:38;11.50;99.90
19968;DHT22;10145;49.152;9.282;2024-03-02T11:22:05;11.40;99.90
19968;DHT22;10145;49.152;9.282;2024-03-02T11:24:31;11.70;99.90
19968;DHT22;10145;49.152;9.282;2024-03-02T11:27:01;11.80;99.90
19968;DHT22;10145;49.152;9.282;2024-03-02T11:32:05;12.00;99.90
19968;DHT22;10145;49.152;9.282;2024-03-02T11:34:35;12.00;99.90
19968;DHT22;10145;49.152;9.282;2024-03-02T11:37:01;12.10;99.90
19968;DHT22;10145;49.152;9.282;2024-03-02T11:39:28;12.20;99.90
19968;DHT22;10145;49.152;9.282;2024-03-02T11:41:58;12.30;99.90
19968;DHT22;10145;49.152;9.282;2024-03-02T11:44:27;12.50;99.90
19968;DHT22;10145;49.152;9.282;2024-03-02T11:47:04;12.80;99.90
19968;DHT22;10145;49.152;9.282;2024-03-02T11:49:41;12.70;99.90
19968;DHT22;10145;49.152;9.282;2024-03-02T11:52:09;12.90;99.90
19968;DHT22;10145;49.152;9.282;2024-03-02T11:54:36;13.10;99.90
19968;DHT22;10145;49.152;9.282;2024-03-02T11:57:06;13.10;99.90
19968;DHT22;10145;49.152;9.282;2024-03-02T11:59:32;13.40;99.90
19968;DHT22;10145;49.152;9.282;2024-03-02T12:01:59;13.40;99.90
19968;DHT22;10145;49.152;9.282;2024-03-02T12:04:25;13.40;99.90
19968;DHT22;10145;49.152;9.282;2024-03-02T12:07:00;13.30;99.90
19968;DHT22;10145;49.152;9.282;2024-03-02T12:09:29;13.40;99.90
19968;DHT22;10145;49.152;9.282;2024-03-02T12:14:28;13.40;99.90
19968;DHT22;10145;49.152;9.282;2024-03-02T12:16:55;13.50;99.90
19968;DHT22;10145;49.152;9.282;2024-03-02T12:19:21;13.60;99.90
19968;DHT22;10145;49.152;9.282;2024-03-02T12:21:47;13.70;99.90
19968;DHT22;10145;49.152;9.282;2024-03-02T12:24:12;13.80;99.90
19968;DHT22;10145;49.152;9.282;2024-03-02T12:26:38;13.80;99.90
19968;DHT22;10145;49.152;9.282;2024-03-02T12:29:04;14.20;99.90
19968;DHT22;10145;49.152;9.282;2024-03-02T12:31:30;14.10;99.90
19968;DHT22;10145;49.152;9.282;2024-03-02T12:33:55;14.20;99.90
19968;DHT22;10145;49.152;9.282;2024-03-02T12:36:22;14.20;99.90
19968;DHT22;10145;49.152;9.282;2024-03-02T12:38:47;14.20;99.90
19968;DHT22;10145;49.152;9.282;2024-03-02T12:41:16;14.20;99.90
19968;DHT22;10145;49.152;9.282;2024-03-02T12:43:42;14.40;99.90
19968;DHT22;10145;49.152;9.282;2024-03-02T12:46:07;14.50;99.90
19968;DHT22;10145;49.152;9.282;2024-03-02T12:48:34;14.50;99.90
19968;DHT22;10145;49.152;9.282;2024-03-02T12:51:01;14.60;99.90
19968;DHT22;10145;49.152;9.282;2024-03-02T12:53:26;14.70;99.90
19968;DHT22;10145;49.152;9.282;2024-03-02T12:55:52;15.00;99.90
19968;DHT22;10145;49.152;9.282;2024-03-02T12:58:22;14.90;99.90
19968;DHT22;10145;49.152;9.282;2024-03-02T13:00:48;15.00;99.90
19968;DHT22;10145;49.152;9.282;2024-03-02T13:03:14;15.20;99.90
19968;DHT22;10145;49.152;9.282;2024-03-02T13:05:40;15.20;99.90
19968;DHT22;10145;49.152;9.282;2024-03-02T13:08:06;15.30;99.90
19968;DHT22;10145;49.152;9.282;2024-03-02T13:10:33;15.60;99.90
19968;DHT22;10145;49.152;9.282;2024-03-02T13:12:59;15.50;99.90
19968;DHT22;10145;49.152;9.282;2024-03-02T13:15:28;15.60;99.90
19968;DHT22;10145;49.152;9.282;2024-03-02T13:17:58;15.60;99.90
19968;DHT22;10145;49.152;9.282;2024-03-02T13:20:23;15.70;99.90
19968;DHT22;10145;49.152;9.282;2024-03-02T13:22:54;15.60;99.90
19968;DHT22;10145;49.152;9.282;2024-03-02T13:25:23;15.50;99.90
19968;DHT22;10145;49.152;9.282;2024-03-02T13:27:49;15.60;99.90
19968;DHT22;10145;49.152;9.282;2024-03-02T13:30:14;15.60;99.90
19968;DHT22;10145;49.152;9.282;2024-03-02T13:32:40;15.50;99.90
19968;DHT22;10145;49.152;9.282;2024-03-02T13:35:06;15.50;99.90
19968;DHT22;10145;49.152;9.282;2024-03-02T13:37:31;15.60;99.90
19968;DHT22;10145;49.152;9.282;2024-03-02T13:39:57;15.60;99.90
19968;DHT22;10145;49.152;9.282;2024-03-02T13:42:23;15.80;99.90
19968;DHT22;10145;49.152;9.282;2024-03-02T13:44:49;15.70;99.90
19968;DHT22;10145;49.152;9.282;2024-03-02T13:47:16;15.80;99.90
19968;DHT22;10145;49.152;9.282;2024-03-02T13:49:42;15.70;99.90
19968;DHT22;10145;49.152;9.282;2024-03-02T13:52:14;15.40;99.90
19968;DHT22;10145;49.152;9.282;2024-03-02T13:54:41;15.40;99.90
19968;DHT22;10145;49.152;9.282;2024-03-02T13:57:08;15.40;99.90
19968;DHT22;10145;49.152;9.282;2024-03-02T13:59:34;15.60;99.90
19968;DHT22;10145;49.152;9.282;2024-03-02T14:02:06;15.10;99.90
19968;DHT22;10145;49.152;9.282;2024-03-02T14:04:33;15.10;99.90
19968;DHT22;10145;49.152;9.282;2024-03-02T14:06:59;15.30;99.90
19968;DHT22;10145;49.152;9.282;2024-03-02T14:09:25;15.40;99.90
19968;DHT22;10145;49.152;9.282;2024-03-02T14:11:52;15.00;99.90
19968;DHT22;10145;49.152;9.282;2024-03-02T14:14:18;15.10;99.90
19968;DHT22;10145;49.152;9.282;2024-03-02T14:16:44;15.00;99.90
19968;DHT22;10145;49.152;9.282;2024-03-02T14:19:10;15.20;99.90
19968;DHT22;10145;49.152;9.282;2024-03-02T14:21:37;15.00;99.90
19968;DHT22;10145;49.152;9.282;2024-03-02T14:24:02;15.10;99.90
19968;DHT22;10145;49.152;9.282;2024-03-02T14:26:28;15.10;99.90
19968;DHT22;10145;49.152;9.282;2024-03-02T14:28:54;15.10;99.90
19968;DHT22;10145;49.152;9.282;2024-03-02T14:31:20;15.30;99.90
19968;DHT22;10145;49.152;9.282;2024-03-02T14:33:46;15.10;99.90
19968;DHT22;10145;49.152;9.282;2024-03-02T14:36:12;15.10;99.90
19968;DHT22;10145;49.152;9.282;2024-03-02T14:38:38;15.10;99.90
19968;DHT22;10145;49.152;9.282;2024-03-02T14:41:04;15.20;99.90
19968;DHT22;10145;49.152;9.282;2024-03-02T14:43:30;15.20;99.90
19968;DHT22;10145;49.152;9.282;2024-03-02T14:45:56;15.40;99.90
19968;DHT22;10145;49.152;9.282;2024-03-02T14:48:22;15.60;99.90
19968;DHT22;10145;49.152;9.282;2024-03-02T14:50:48;15.70;99.90
19968;DHT22;10145;49.152;9.282;2024-03-02T14:53:14;16.10;99.90
19968;DHT22;10145;49.152;9.282;2024-03-02T14:55:39;16.10;99.90
19968;DHT22;10145;49.152;9.282;2024-03-02T14:58:05;17.50;99.90
19968;DHT22;10145;49.152;9.282;2024-03-02T15:00:30;19.90;99.80
19968;DHT22;10145;49.152;9.282;2024-03-02T15:02:56;22.60;99.40
19968;DHT22;10145;49.152;9.282;2024-03-02T15:05:22;24.90;92.10
19968;DHT22;10145;49.152;9.282;2024-03-02T15:07:47;26.80;87.00
19968;DHT22;10145;49.152;9.282;2024-03-02T15:10:13;28.20;80.00
19968;DHT22;10145;49.152;9.282;2024-03-02T15:12:38;28.90;70.60
19968;DHT22;10145;49.152;9.282;2024-03-02T15:15:04;29.30;66.90
19968;DHT22;10145;49.152;9.282;2024-03-02T15:17:30;28.90;62.00
19968;DHT22;10145;49.152;9.282;2024-03-02T15:19:56;28.10;63.60
19968;DHT22;10145;49.152;9.282;2024-03-02T15:22:21;28.10;64.70
19968;DHT22;10145;49.152;9.282;2024-03-02T15:24:47;28.20;59.70
19968;DHT22;10145;49.152;9.282;2024-03-02T15:27:12;27.50;60.60
19968;DHT22;10145;49.152;9.282;2024-03-02T15:29:38;25.90;60.70
19968;DHT22;10145;49.152;9.282;2024-03-02T15:32:04;23.80;63.50
19968;DHT22;10145;49.152;9.282;2024-03-02T15:34:32;22.10;66.40
19968;DHT22;10145;49.152;9.282;2024-03-02T15:36:59;20.60;73.40
19968;DHT22;10145;49.152;9.282;2024-03-02T15:39:25;20.10;78.10
19968;DHT22;10145;49.152;9.282;2024-03-02T15:41:50;19.60;79.60
19968;DHT22;10145;49.152;9.282;2024-03-02T15:44:16;19.80;78.90
19968;DHT22;10145;49.152;9.282;2024-03-02T15:46:42;19.90;79.70
19968;DHT22;10145;49.152;9.282;2024-03-02T15:49:07;19.60;87.30